sensor_id;sensor_type;location;lat;lon;timestamp;P1;durP1;ratioP1;P2;durP2;ratioP2
32906;SDS011;19259;51.590;5.320;2022-08-01T00:01:30;17.15;;;9.43;;
32906;SDS011;19259;51.590;5.320;2022-08-01T00:03:57;18.23;;;8.83;;
32906;SDS011;19259;51.590;5.320;2022-08-01T00:06:25;15.98;;;9.63;;
32906;SDS011;19259;51.590;5.320;2022-08-01T00:08:52;17.80;;;9.65;;
32906;SDS011;19259;51.590;5.320;2022-08-01T00:11:20;17.92;;;9.60;;
32906;SDS011;19259;51.590;5.320;2022-08-01T00:13:48;24.15;;;10.50;;
32906;SDS011;19259;51.590;5.320;2022-08-01T00:16:16;20.08;;;10.65;;
32906;SDS011;19259;51.590;5.320;2022-08-01T00:18:43;22.05;;;11.10;;
32906;SDS011;19259;51.590;5.320;2022-08-01T00:21:11;23.47;;;10.63;;
32906;SDS011;19259;51.590;5.320;2022-08-01T00:23:38;17.77;;;9.43;;
32906;SDS011;19259;51.590;5.320;2022-08-01T00:26:06;17.70;;;9.60;;
32906;SDS011;19259;51.590;5.320;2022-08-01T00:28:33;24.72;;;10.38;;
32906;SDS011;19259;51.590;5.320;2022-08-01T00:31:01;22.80;;;10.63;;
32906;SDS011;19259;51.590;5.320;2022-08-01T00:33:28;21.90;;;9.95;;
32906;SDS011;19259;51.590;5.320;2022-08-01T00:35:56;16.30;;;9.10;;
32906;SDS011;19259;51.590;5.320;2022-08-01T00:38:23;18.82;;;10.18;;
32906;SDS011;19259;51.590;5.320;2022-08-01T00:40:51;21.12;;;10.50;;
32906;SDS011;19259;51.590;5.320;2022-08-01T00:43:19;25.70;;;10.43;;
32906;SDS011;19259;51.590;5.320;2022-08-01T00:45:46;22.05;;;10.95;;
32906;SDS011;19259;51.590;5.320;2022-08-01T00:48:14;17.57;;;9.40;;
32906;SDS011;19259;51.590;5.320;2022-08-01T00:50:43;17.40;;;9.65;;
32906;SDS011;19259;51.590;5.320;2022-08-01T00:53:12;20.08;;;9.95;;
32906;SDS011;19259;51.590;5.320;2022-08-01T00:55:39;16.23;;;9.48;;
32906;SDS011;19259;51.590;5.320;2022-08-01T00:58:07;18.05;;;8.35;;
32906;SDS011;19259;51.590;5.320;2022-08-01T01:00:35;17.40;;;8.23;;
32906;SDS011;19259;51.590;5.320;2022-08-01T01:03:03;16.07;;;8.53;;
32906;SDS011;19259;51.590;5.320;2022-08-01T01:05:31;12.60;;;7.90;;
32906;SDS011;19259;51.590;5.320;2022-08-01T01:08:06;18.45;;;8.33;;
32906;SDS011;19259;51.590;5.320;2022-08-01T01:10:58;23.50;;;9.40;;
32906;SDS011;19259;51.590;5.320;2022-08-01T01:13:12;15.72;;;9.40;;
32906;SDS011;19259;51.590;5.320;2022-08-01T01:16:00;13.08;;;7.80;;
32906;SDS011;19259;51.590;5.320;2022-08-01T01:18:32;14.07;;;8.55;;
32906;SDS011;19259;51.590;5.320;2022-08-01T01:21:12;16.52;;;8.60;;
32906;SDS011;19259;51.590;5.320;2022-08-01T01:26:57;20.17;;;9.58;;
32906;SDS011;19259;51.590;5.320;2022-08-01T01:29:11;14.15;;;8.28;;
32906;SDS011;19259;51.590;5.320;2022-08-01T01:31:43;17.73;;;9.03;;
32906;SDS011;19259;51.590;5.320;2022-08-01T01:34:18;16.97;;;9.03;;
32906;SDS011;19259;51.590;5.320;2022-08-01T01:36:48;16.95;;;8.05;;
32906;SDS011;19259;51.590;5.320;2022-08-01T01:39:18;13.85;;;7.62;;
32906;SDS011;19259;51.590;5.320;2022-08-01T01:41:49;14.33;;;7.53;;
32906;SDS011;19259;51.590;5.320;2022-08-01T01:44:19;15.80;;;8.08;;
32906;SDS011;19259;51.590;5.320;2022-08-01T01:46:47;17.00;;;7.70;;
32906;SDS011;19259;51.590;5.320;2022-08-01T01:49:16;13.70;;;7.75;;
32906;SDS011;19259;51.590;5.320;2022-08-01T01:51:51;15.80;;;9.25;;
32906;SDS011;19259;51.590;5.320;2022-08-01T01:54:21;15.23;;;8.20;;
32906;SDS011;19259;51.590;5.320;2022-08-01T01:56:51;17.30;;;8.70;;
32906;SDS011;19259;51.590;5.320;2022-08-01T01:59:24;15.10;;;7.92;;
32906;SDS011;19259;51.590;5.320;2022-08-01T02:01:53;18.67;;;8.70;;
32906;SDS011;19259;51.590;5.320;2022-08-01T02:04:22;14.38;;;8.30;;
32906;SDS011;19259;51.590;5.320;2022-08-01T02:06:52;16.48;;;8.78;;
32906;SDS011;19259;51.590;5.320;2022-08-01T02:09:21;14.78;;;8.20;;
32906;SDS011;19259;51.590;5.320;2022-08-01T02:11:49;15.03;;;8.03;;
32906;SDS011;19259;51.590;5.320;2022-08-01T02:14:19;16.50;;;8.58;;
32906;SDS011;19259;51.590;5.320;2022-08-01T02:16:49;14.03;;;7.75;;
32906;SDS011;19259;51.590;5.320;2022-08-01T02:19:17;14.07;;;7.35;;
32906;SDS011;19259;51.590;5.320;2022-08-01T02:22:01;15.32;;;9.28;;
32906;SDS011;19259;51.590;5.320;2022-08-01T02:27:09;17.10;;;8.98;;
32906;SDS011;19259;51.590;5.320;2022-08-01T02:29:42;17.37;;;9.73;;
32906;SDS011;19259;51.590;5.320;2022-08-01T02:32:12;20.37;;;8.55;;
32906;SDS011;19259;51.590;5.320;2022-08-01T02:34:46;17.57;;;9.58;;
32906;SDS011;19259;51.590;5.320;2022-08-01T02:37:15;16.65;;;9.53;;
32906;SDS011;19259;51.590;5.320;2022-08-01T02:39:46;18.62;;;8.45;;
32906;SDS011;19259;51.590;5.320;2022-08-01T02:42:16;15.75;;;9.53;;
32906;SDS011;19259;51.590;5.320;2022-08-01T02:44:45;16.40;;;9.60;;
32906;SDS011;19259;51.590;5.320;2022-08-01T02:47:14;17.90;;;9.05;;
32906;SDS011;19259;51.590;5.320;2022-08-01T02:49:45;17.87;;;9.33;;
32906;SDS011;19259;51.590;5.320;2022-08-01T02:52:15;15.70;;;9.20;;
32906;SDS011;19259;51.590;5.320;2022-08-01T02:54:44;16.93;;;8.63;;
32906;SDS011;19259;51.590;5.320;2022-08-01T02:57:14;16.07;;;8.85;;
32906;SDS011;19259;51.590;5.320;2022-08-01T02:59:43;16.93;;;9.00;;
32906;SDS011;19259;51.590;5.320;2022-08-01T03:02:12;19.98;;;8.98;;
32906;SDS011;19259;51.590;5.320;2022-08-01T03:04:50;19.62;;;9.10;;
32906;SDS011;19259;51.590;5.320;2022-08-01T03:07:19;13.98;;;7.78;;
32906;SDS011;19259;51.590;5.320;2022-08-01T03:09:49;18.23;;;8.93;;
32906;SDS011;19259;51.590;5.320;2022-08-01T03:12:18;15.28;;;9.30;;
32906;SDS011;19259;51.590;5.320;2022-08-01T03:14:49;21.68;;;10.10;;
32906;SDS011;19259;51.590;5.320;2022-08-01T03:17:20;19.65;;;9.58;;
32906;SDS011;19259;51.590;5.320;2022-08-01T03:19:50;21.52;;;10.48;;
32906;SDS011;19259;51.590;5.320;2022-08-01T03:22:20;15.28;;;9.08;;
32906;SDS011;19259;51.590;5.320;2022-08-01T03:24:51;19.77;;;10.25;;
32906;SDS011;19259;51.590;5.320;2022-08-01T03:27:20;21.00;;;9.68;;
32906;SDS011;19259;51.590;5.320;2022-08-01T03:29:50;19.82;;;9.08;;
32906;SDS011;19259;51.590;5.320;2022-08-01T03:32:20;20.52;;;9.78;;
32906;SDS011;19259;51.590;5.320;2022-08-01T03:34:49;17.35;;;8.88;;
32906;SDS011;19259;51.590;5.320;2022-08-01T03:37:30;17.23;;;9.73;;
32906;SDS011;19259;51.590;5.320;2022-08-01T03:42:37;19.37;;;9.15;;
32906;SDS011;19259;51.590;5.320;2022-08-01T03:45:06;18.90;;;10.15;;
32906;SDS011;19259;51.590;5.320;2022-08-01T03:47:36;21.10;;;9.98;;
32906;SDS011;19259;51.590;5.320;2022-08-01T03:50:06;16.85;;;9.93;;
32906;SDS011;19259;51.590;5.320;2022-08-01T03:52:35;17.32;;;9.70;;
32906;SDS011;19259;51.590;5.320;2022-08-01T03:55:05;15.30;;;8.70;;
32906;SDS011;19259;51.590;5.320;2022-08-01T03:57:34;18.77;;;9.35;;
32906;SDS011;19259;51.590;5.320;2022-08-01T04:00:03;19.10;;;10.72;;
32906;SDS011;19259;51.590;5.320;2022-08-01T04:02:34;18.00;;;9.33;;
32906;SDS011;19259;51.590;5.320;2022-08-01T04:05:03;15.98;;;8.40;;
32906;SDS011;19259;51.590;5.320;2022-08-01T04:07:34;22.27;;;10.35;;
32906;SDS011;19259;51.590;5.320;2022-08-01T04:10:02;20.43;;;10.43;;
32906;SDS011;19259;51.590;5.320;2022-08-01T04:12:31;22.15;;;9.78;;
32906;SDS011;19259;51.590;5.320;2022-08-01T04:14:58;17.98;;;9.28;;
32906;SDS011;19259;51.590;5.320;2022-08-01T04:17:27;17.62;;;9.95;;
32906;SDS011;19259;51.590;5.320;2022-08-01T04:19:55;17.23;;;9.13;;
32906;SDS011;19259;51.590;5.320;2022-08-01T04:22:22;17.17;;;9.30;;
32906;SDS011;19259;51.590;5.320;2022-08-01T04:24:50;17.45;;;9.90;;
32906;SDS011;19259;51.590;5.320;2022-08-01T04:27:22;19.70;;;10.28;;
32906;SDS011;19259;51.590;5.320;2022-08-01T04:29:51;18.27;;;9.63;;
32906;SDS011;19259;51.590;5.320;2022-08-01T04:32:22;19.20;;;10.23;;
32906;SDS011;19259;51.590;5.320;2022-08-01T04:34:51;16.32;;;9.35;;
32906;SDS011;19259;51.590;5.320;2022-08-01T04:37:23;17.52;;;9.60;;
32906;SDS011;19259;51.590;5.320;2022-08-01T04:39:52;14.18;;;7.75;;
32906;SDS011;19259;51.590;5.320;2022-08-01T04:42:21;16.35;;;9.08;;
32906;SDS011;19259;51.590;5.320;2022-08-01T04:44:49;20.45;;;9.48;;
32906;SDS011;19259;51.590;5.320;2022-08-01T04:47:17;17.42;;;9.48;;
32906;SDS011;19259;51.590;5.320;2022-08-01T04:49:46;20.10;;;9.25;;
32906;SDS011;19259;51.590;5.320;2022-08-01T04:52:15;16.67;;;8.98;;
32906;SDS011;19259;51.590;5.320;2022-08-01T04:54:43;22.77;;;10.75;;
32906;SDS011;19259;51.590;5.320;2022-08-01T04:57:12;18.15;;;9.58;;
32906;SDS011;19259;51.590;5.320;2022-08-01T04:59:41;16.48;;;8.60;;
32906;SDS011;19259;51.590;5.320;2022-08-01T05:02:10;17.60;;;8.98;;
32906;SDS011;19259;51.590;5.320;2022-08-01T05:04:40;14.60;;;8.28;;
32906;SDS011;19259;51.590;5.320;2022-08-01T05:07:09;12.63;;;7.40;;
32906;SDS011;19259;51.590;5.320;2022-08-01T05:09:38;18.00;;;8.43;;
32906;SDS011;19259;51.590;5.320;2022-08-01T05:12:10;15.55;;;8.10;;
32906;SDS011;19259;51.590;5.320;2022-08-01T05:14:39;18.32;;;8.48;;
32906;SDS011;19259;51.590;5.320;2022-08-01T05:17:07;13.95;;;7.67;;
32906;SDS011;19259;51.590;5.320;2022-08-01T05:19:37;14.25;;;8.05;;
32906;SDS011;19259;51.590;5.320;2022-08-01T05:22:06;15.10;;;8.40;;
32906;SDS011;19259;51.590;5.320;2022-08-01T05:24:36;14.83;;;7.35;;
32906;SDS011;19259;51.590;5.320;2022-08-01T05:27:06;14.35;;;6.62;;
32906;SDS011;19259;51.590;5.320;2022-08-01T05:29:34;16.40;;;8.20;;
32906;SDS011;19259;51.590;5.320;2022-08-01T05:32:02;17.62;;;8.85;;
32906;SDS011;19259;51.590;5.320;2022-08-01T05:34:30;19.40;;;9.65;;
32906;SDS011;19259;51.590;5.320;2022-08-01T05:36:57;19.52;;;10.13;;
32906;SDS011;19259;51.590;5.320;2022-08-01T05:39:25;18.48;;;10.20;;
32906;SDS011;19259;51.590;5.320;2022-08-01T05:41:52;13.22;;;8.13;;
32906;SDS011;19259;51.590;5.320;2022-08-01T05:44:20;14.00;;;8.58;;
32906;SDS011;19259;51.590;5.320;2022-08-01T05:46:48;16.35;;;8.40;;
32906;SDS011;19259;51.590;5.320;2022-08-01T05:49:15;16.40;;;8.35;;
32906;SDS011;19259;51.590;5.320;2022-08-01T05:51:43;14.05;;;7.67;;
32906;SDS011;19259;51.590;5.320;2022-08-01T05:54:15;12.93;;;7.97;;
32906;SDS011;19259;51.590;5.320;2022-08-01T05:56:39;15.53;;;7.58;;
32906;SDS011;19259;51.590;5.320;2022-08-01T05:59:07;18.20;;;7.85;;
32906;SDS011;19259;51.590;5.320;2022-08-01T06:01:35;11.48;;;7.30;;
32906;SDS011;19259;51.590;5.320;2022-08-01T06:04:02;14.58;;;7.08;;
32906;SDS011;19259;51.590;5.320;2022-08-01T06:06:30;14.78;;;5.80;;
32906;SDS011;19259;51.590;5.320;2022-08-01T06:08:58;10.55;;;5.37;;
32906;SDS011;19259;51.590;5.320;2022-08-01T06:11:25;10.55;;;5.78;;
32906;SDS011;19259;51.590;5.320;2022-08-01T06:13:53;10.65;;;4.90;;
32906;SDS011;19259;51.590;5.320;2022-08-01T06:16:20;10.95;;;4.67;;
32906;SDS011;19259;51.590;5.320;2022-08-01T06:18:48;7.35;;;4.58;;
32906;SDS011;19259;51.590;5.320;2022-08-01T06:21:15;8.63;;;4.72;;
32906;SDS011;19259;51.590;5.320;2022-08-01T06:23:43;5.70;;;3.60;;
32906;SDS011;19259;51.590;5.320;2022-08-01T06:26:10;7.90;;;3.55;;
32906;SDS011;19259;51.590;5.320;2022-08-01T06:28:38;7.95;;;4.12;;
32906;SDS011;19259;51.590;5.320;2022-08-01T06:31:06;5.58;;;3.22;;
32906;SDS011;19259;51.590;5.320;2022-08-01T06:33:39;6.47;;;2.75;;
32906;SDS011;19259;51.590;5.320;2022-08-01T06:36:07;7.65;;;3.80;;
32906;SDS011;19259;51.590;5.320;2022-08-01T06:38:35;7.17;;;3.08;;
32906;SDS011;19259;51.590;5.320;2022-08-01T06:41:02;5.60;;;2.60;;
32906;SDS011;19259;51.590;5.320;2022-08-01T06:43:30;5.22;;;2.98;;
32906;SDS011;19259;51.590;5.320;2022-08-01T06:45:57;4.95;;;2.75;;
32906;SDS011;19259;51.590;5.320;2022-08-01T06:48:25;4.65;;;2.27;;
32906;SDS011;19259;51.590;5.320;2022-08-01T06:50:52;6.65;;;2.75;;
32906;SDS011;19259;51.590;5.320;2022-08-01T06:53:22;9.15;;;2.42;;
32906;SDS011;19259;51.590;5.320;2022-08-01T06:55:49;4.15;;;1.95;;
32906;SDS011;19259;51.590;5.320;2022-08-01T06:58:22;5.65;;;2.75;;
32906;SDS011;19259;51.590;5.320;2022-08-01T07:00:46;4.22;;;1.85;;
32906;SDS011;19259;51.590;5.320;2022-08-01T07:03:13;5.35;;;2.05;;
32906;SDS011;19259;51.590;5.320;2022-08-01T07:05:41;8.88;;;2.30;;
32906;SDS011;19259;51.590;5.320;2022-08-01T07:08:10;5.50;;;2.33;;
32906;SDS011;19259;51.590;5.320;2022-08-01T07:10:38;3.10;;;1.62;;
32906;SDS011;19259;51.590;5.320;2022-08-01T07:13:05;4.80;;;1.75;;
32906;SDS011;19259;51.590;5.320;2022-08-01T07:15:32;2.95;;;1.65;;
32906;SDS011;19259;51.590;5.320;2022-08-01T07:18:00;4.60;;;1.82;;
32906;SDS011;19259;51.590;5.320;2022-08-01T07:20:29;3.08;;;1.75;;
32906;SDS011;19259;51.590;5.320;2022-08-01T07:22:57;2.72;;;1.45;;
32906;SDS011;19259;51.590;5.320;2022-08-01T07:25:24;7.30;;;1.80;;
32906;SDS011;19259;51.590;5.320;2022-08-01T07:27:52;3.60;;;1.70;;
32906;SDS011;19259;51.590;5.320;2022-08-01T07:30:19;4.62;;;1.67;;
32906;SDS011;19259;51.590;5.320;2022-08-01T07:32:47;2.33;;;1.40;;
32906;SDS011;19259;51.590;5.320;2022-08-01T07:35:15;3.67;;;1.47;;
32906;SDS011;19259;51.590;5.320;2022-08-01T07:37:42;3.75;;;1.70;;
32906;SDS011;19259;51.590;5.320;2022-08-01T07:40:10;2.20;;;1.22;;
32906;SDS011;19259;51.590;5.320;2022-08-01T07:42:38;2.62;;;1.55;;
32906;SDS011;19259;51.590;5.320;2022-08-01T07:45:07;5.12;;;1.27;;
32906;SDS011;19259;51.590;5.320;2022-08-01T07:47:36;3.15;;;1.40;;
32906;SDS011;19259;51.590;5.320;2022-08-01T07:50:05;4.78;;;1.55;;
32906;SDS011;19259;51.590;5.320;2022-08-01T07:52:33;3.25;;;1.15;;
32906;SDS011;19259;51.590;5.320;2022-08-01T07:55:01;3.17;;;1.62;;
32906;SDS011;19259;51.590;5.320;2022-08-01T07:57:28;3.35;;;1.70;;
32906;SDS011;19259;51.590;5.320;2022-08-01T07:59:56;9.18;;;2.08;;
32906;SDS011;19259;51.590;5.320;2022-08-01T08:02:23;5.75;;;1.70;;
32906;SDS011;19259;51.590;5.320;2022-08-01T08:04:51;5.65;;;1.85;;
32906;SDS011;19259;51.590;5.320;2022-08-01T08:07:18;7.22;;;1.82;;
32906;SDS011;19259;51.590;5.320;2022-08-01T08:09:46;3.20;;;1.95;;
32906;SDS011;19259;51.590;5.320;2022-08-01T08:12:13;3.12;;;1.75;;
32906;SDS011;19259;51.590;5.320;2022-08-01T08:14:41;4.10;;;1.90;;
32906;SDS011;19259;51.590;5.320;2022-08-01T08:17:11;3.15;;;1.50;;
32906;SDS011;19259;51.590;5.320;2022-08-01T08:19:39;3.33;;;1.37;;
32906;SDS011;19259;51.590;5.320;2022-08-01T08:22:07;3.10;;;1.60;;
32906;SDS011;19259;51.590;5.320;2022-08-01T08:24:35;4.67;;;1.57;;
32906;SDS011;19259;51.590;5.320;2022-08-01T08:27:04;3.35;;;1.50;;
32906;SDS011;19259;51.590;5.320;2022-08-01T08:29:33;2.85;;;1.30;;
32906;SDS011;19259;51.590;5.320;2022-08-01T08:32:01;2.15;;;0.98;;
32906;SDS011;19259;51.590;5.320;2022-08-01T08:34:29;1.85;;;1.10;;
32906;SDS011;19259;51.590;5.320;2022-08-01T08:37:03;2.22;;;1.00;;
32906;SDS011;19259;51.590;5.320;2022-08-01T08:39:30;2.25;;;1.22;;
32906;SDS011;19259;51.590;5.320;2022-08-01T08:42:04;3.70;;;1.27;;
32906;SDS011;19259;51.590;5.320;2022-08-01T08:44:31;4.22;;;1.52;;
32906;SDS011;19259;51.590;5.320;2022-08-01T08:47:00;2.58;;;1.32;;
32906;SDS011;19259;51.590;5.320;2022-08-01T08:49:31;3.85;;;1.50;;
32906;SDS011;19259;51.590;5.320;2022-08-01T08:52:00;3.02;;;1.55;;
32906;SDS011;19259;51.590;5.320;2022-08-01T08:54:28;3.92;;;1.90;;
32906;SDS011;19259;51.590;5.320;2022-08-01T08:57:00;3.60;;;2.17;;
32906;SDS011;19259;51.590;5.320;2022-08-01T08:59:28;4.40;;;2.02;;
32906;SDS011;19259;51.590;5.320;2022-08-01T09:01:56;3.62;;;1.62;;
32906;SDS011;19259;51.590;5.320;2022-08-01T09:04:24;4.15;;;1.50;;
32906;SDS011;19259;51.590;5.320;2022-08-01T09:06:53;3.90;;;2.02;;
32906;SDS011;19259;51.590;5.320;2022-08-01T09:09:21;4.72;;;2.33;;
32906;SDS011;19259;51.590;5.320;2022-08-01T09:11:50;5.58;;;2.50;;
32906;SDS011;19259;51.590;5.320;2022-08-01T09:14:18;3.50;;;1.90;;
32906;SDS011;19259;51.590;5.320;2022-08-01T09:17:01;4.70;;;1.93;;
32906;SDS011;19259;51.590;5.320;2022-08-01T09:19:36;2.13;;;1.40;;
32906;SDS011;19259;51.590;5.320;2022-08-01T09:22:06;3.60;;;1.62;;
32906;SDS011;19259;51.590;5.320;2022-08-01T09:24:56;3.30;;;1.60;;
32906;SDS011;19259;51.590;5.320;2022-08-01T09:27:35;4.90;;;1.85;;
32906;SDS011;19259;51.590;5.320;2022-08-01T09:30:17;3.92;;;1.35;;
32906;SDS011;19259;51.590;5.320;2022-08-01T09:32:59;3.47;;;1.50;;
32906;SDS011;19259;51.590;5.320;2022-08-01T09:35:43;3.83;;;1.70;;
32906;SDS011;19259;51.590;5.320;2022-08-01T09:43:22;3.65;;;1.67;;
32906;SDS011;19259;51.590;5.320;2022-08-01T09:45:51;4.97;;;1.82;;
32906;SDS011;19259;51.590;5.320;2022-08-01T09:48:20;9.28;;;1.57;;
32906;SDS011;19259;51.590;5.320;2022-08-01T09:50:50;3.05;;;1.50;;
32906;SDS011;19259;51.590;5.320;2022-08-01T09:53:18;2.20;;;1.20;;
32906;SDS011;19259;51.590;5.320;2022-08-01T09:55:46;2.87;;;1.75;;
32906;SDS011;19259;51.590;5.320;2022-08-01T09:58:15;2.05;;;1.20;;
32906;SDS011;19259;51.590;5.320;2022-08-01T10:00:43;4.87;;;1.07;;
32906;SDS011;19259;51.590;5.320;2022-08-01T10:03:21;4.30;;;1.35;;
32906;SDS011;19259;51.590;5.320;2022-08-01T10:05:50;5.42;;;1.17;;
32906;SDS011;19259;51.590;5.320;2022-08-01T10:08:19;2.20;;;1.22;;
32906;SDS011;19259;51.590;5.320;2022-08-01T10:13:35;2.22;;;1.25;;
32906;SDS011;19259;51.590;5.320;2022-08-01T10:16:05;2.85;;;1.50;;
32906;SDS011;19259;51.590;5.320;2022-08-01T10:18:33;2.92;;;1.25;;
32906;SDS011;19259;51.590;5.320;2022-08-01T10:21:02;4.08;;;1.67;;
32906;SDS011;19259;51.590;5.320;2022-08-01T10:23:33;2.80;;;1.30;;
32906;SDS011;19259;51.590;5.320;2022-08-01T10:26:00;2.15;;;1.32;;
32906;SDS011;19259;51.590;5.320;2022-08-01T10:28:30;4.42;;;1.62;;
32906;SDS011;19259;51.590;5.320;2022-08-01T10:30:59;3.33;;;1.42;;
32906;SDS011;19259;51.590;5.320;2022-08-01T10:33:28;3.22;;;1.40;;
32906;SDS011;19259;51.590;5.320;2022-08-01T10:35:56;3.22;;;1.55;;
32906;SDS011;19259;51.590;5.320;2022-08-01T10:38:24;5.03;;;1.40;;
32906;SDS011;19259;51.590;5.320;2022-08-01T10:40:54;2.15;;;1.27;;
32906;SDS011;19259;51.590;5.320;2022-08-01T10:43:23;2.37;;;1.00;;
32906;SDS011;19259;51.590;5.320;2022-08-01T10:45:51;1.57;;;0.82;;
32906;SDS011;19259;51.590;5.320;2022-08-01T10:50:53;2.00;;;0.88;;
32906;SDS011;19259;51.590;5.320;2022-08-01T10:53:23;2.20;;;0.75;;
32906;SDS011;19259;51.590;5.320;2022-08-01T10:58:31;3.37;;;0.90;;
32906;SDS011;19259;51.590;5.320;2022-08-01T11:06:40;3.70;;;1.07;;
32906;SDS011;19259;51.590;5.320;2022-08-01T11:11:58;3.98;;;1.20;;
32906;SDS011;19259;51.590;5.320;2022-08-01T11:14:30;2.98;;;1.22;;
32906;SDS011;19259;51.590;5.320;2022-08-01T11:17:45;3.67;;;1.32;;
32906;SDS011;19259;51.590;5.320;2022-08-01T11:20:05;5.60;;;1.87;;
32906;SDS011;19259;51.590;5.320;2022-08-01T11:30:46;2.30;;;1.30;;
32906;SDS011;19259;51.590;5.320;2022-08-01T11:33:15;4.20;;;1.30;;
32906;SDS011;19259;51.590;5.320;2022-08-01T11:38:48;4.35;;;1.57;;
32906;SDS011;19259;51.590;5.320;2022-08-01T11:41:22;4.42;;;1.30;;
32906;SDS011;19259;51.590;5.320;2022-08-01T11:43:58;4.42;;;1.30;;
32906;SDS011;19259;51.590;5.320;2022-08-01T11:46:49;2.40;;;1.15;;
32906;SDS011;19259;51.590;5.320;2022-08-01T11:52:08;2.52;;;1.37;;
32906;SDS011;19259;51.590;5.320;2022-08-01T11:57:19;4.83;;;1.37;;
32906;SDS011;19259;51.590;5.320;2022-08-01T11:59:50;3.20;;;1.47;;
32906;SDS011;19259;51.590;5.320;2022-08-01T12:07:30;2.75;;;1.70;;
32906;SDS011;19259;51.590;5.320;2022-08-01T12:10:00;2.77;;;1.25;;
32906;SDS011;19259;51.590;5.320;2022-08-01T12:12:30;3.50;;;1.90;;
32906;SDS011;19259;51.590;5.320;2022-08-01T12:14:59;2.20;;;1.50;;
32906;SDS011;19259;51.590;5.320;2022-08-01T12:20:06;3.17;;;1.40;;
32906;SDS011;19259;51.590;5.320;2022-08-01T12:22:35;3.75;;;1.30;;
32906;SDS011;19259;51.590;5.320;2022-08-01T12:27:38;3.80;;;2.05;;
32906;SDS011;19259;51.590;5.320;2022-08-01T12:30:08;7.05;;;2.05;;
32906;SDS011;19259;51.590;5.320;2022-08-01T12:32:38;4.75;;;1.25;;
32906;SDS011;19259;51.590;5.320;2022-08-01T12:35:11;4.15;;;2.00;;
32906;SDS011;19259;51.590;5.320;2022-08-01T12:40:25;5.90;;;2.00;;
32906;SDS011;19259;51.590;5.320;2022-08-01T12:42:55;4.85;;;2.20;;
32906;SDS011;19259;51.590;5.320;2022-08-01T12:45:25;4.95;;;1.80;;
32906;SDS011;19259;51.590;5.320;2022-08-01T12:47:55;8.45;;;2.00;;
32906;SDS011;19259;51.590;5.320;2022-08-01T12:50:25;4.75;;;1.80;;
32906;SDS011;19259;51.590;5.320;2022-08-01T12:52:55;5.85;;;1.95;;
32906;SDS011;19259;51.590;5.320;2022-08-01T12:55:27;4.72;;;1.80;;
32906;SDS011;19259;51.590;5.320;2022-08-01T12:58:07;5.92;;;2.00;;
32906;SDS011;19259;51.590;5.320;2022-08-01T13:00:37;5.83;;;1.87;;
32906;SDS011;19259;51.590;5.320;2022-08-01T13:05:50;4.03;;;1.85;;
32906;SDS011;19259;51.590;5.320;2022-08-01T13:08:22;6.33;;;2.13;;
32906;SDS011;19259;51.590;5.320;2022-08-01T13:10:59;3.15;;;1.32;;
32906;SDS011;19259;51.590;5.320;2022-08-01T13:13:22;3.90;;;1.42;;
32906;SDS011;19259;51.590;5.320;2022-08-01T13:15:49;6.33;;;1.65;;
32906;SDS011;19259;51.590;5.320;2022-08-01T13:18:24;6.15;;;1.80;;
32906;SDS011;19259;51.590;5.320;2022-08-01T13:21:07;4.17;;;1.82;;
32906;SDS011;19259;51.590;5.320;2022-08-01T13:23:37;4.08;;;1.47;;
32906;SDS011;19259;51.590;5.320;2022-08-01T13:26:06;5.37;;;1.80;;
32906;SDS011;19259;51.590;5.320;2022-08-01T13:28:34;5.78;;;1.90;;
32906;SDS011;19259;51.590;5.320;2022-08-01T13:31:05;5.90;;;2.05;;
32906;SDS011;19259;51.590;5.320;2022-08-01T13:33:43;6.45;;;2.50;;
32906;SDS011;19259;51.590;5.320;2022-08-01T13:36:13;10.78;;;1.98;;
32906;SDS011;19259;51.590;5.320;2022-08-01T13:38:41;6.33;;;2.20;;
32906;SDS011;19259;51.590;5.320;2022-08-01T13:41:27;7.20;;;2.47;;
32906;SDS011;19259;51.590;5.320;2022-08-01T13:44:00;5.55;;;2.10;;
32906;SDS011;19259;51.590;5.320;2022-08-01T13:46:27;7.40;;;2.20;;
32906;SDS011;19259;51.590;5.320;2022-08-01T13:48:56;10.82;;;2.10;;
32906;SDS011;19259;51.590;5.320;2022-08-01T13:51:24;8.25;;;2.10;;
32906;SDS011;19259;51.590;5.320;2022-08-01T13:53:52;9.48;;;2.67;;
32906;SDS011;19259;51.590;5.320;2022-08-01T13:56:19;4.45;;;1.82;;
32906;SDS011;19259;51.590;5.320;2022-08-01T13:58:47;5.87;;;2.37;;
32906;SDS011;19259;51.590;5.320;2022-08-01T14:01:15;4.90;;;1.98;;
32906;SDS011;19259;51.590;5.320;2022-08-01T14:03:43;7.65;;;2.35;;
32906;SDS011;19259;51.590;5.320;2022-08-01T14:06:10;9.90;;;2.30;;
32906;SDS011;19259;51.590;5.320;2022-08-01T14:08:42;9.30;;;2.35;;
32906;SDS011;19259;51.590;5.320;2022-08-01T14:11:11;8.45;;;2.00;;
32906;SDS011;19259;51.590;5.320;2022-08-01T14:13:38;5.17;;;1.90;;
32906;SDS011;19259;51.590;5.320;2022-08-01T14:16:06;5.90;;;1.87;;
32906;SDS011;19259;51.590;5.320;2022-08-01T14:18:34;7.92;;;1.98;;
32906;SDS011;19259;51.590;5.320;2022-08-01T14:21:02;6.47;;;1.82;;
32906;SDS011;19259;51.590;5.320;2022-08-01T14:23:29;6.65;;;2.08;;
32906;SDS011;19259;51.590;5.320;2022-08-01T14:25:57;11.55;;;2.17;;
32906;SDS011;19259;51.590;5.320;2022-08-01T14:28:25;13.60;;;1.92;;
32906;SDS011;19259;51.590;5.320;2022-08-01T14:30:54;5.12;;;1.67;;
32906;SDS011;19259;51.590;5.320;2022-08-01T14:33:21;8.50;;;1.98;;
32906;SDS011;19259;51.590;5.320;2022-08-01T14:35:49;9.60;;;2.25;;
32906;SDS011;19259;51.590;5.320;2022-08-01T14:38:16;7.12;;;1.65;;
32906;SDS011;19259;51.590;5.320;2022-08-01T14:40:44;5.83;;;1.67;;
32906;SDS011;19259;51.590;5.320;2022-08-01T14:43:13;4.92;;;1.80;;
32906;SDS011;19259;51.590;5.320;2022-08-01T14:45:40;3.02;;;1.40;;
32906;SDS011;19259;51.590;5.320;2022-08-01T14:48:08;6.22;;;1.80;;
32906;SDS011;19259;51.590;5.320;2022-08-01T14:50:36;5.33;;;1.70;;
32906;SDS011;19259;51.590;5.320;2022-08-01T14:53:03;6.50;;;2.05;;
32906;SDS011;19259;51.590;5.320;2022-08-01T14:55:31;7.92;;;1.98;;
32906;SDS011;19259;51.590;5.320;2022-08-01T14:57:58;6.58;;;2.08;;
32906;SDS011;19259;51.590;5.320;2022-08-01T15:00:26;5.20;;;1.70;;
32906;SDS011;19259;51.590;5.320;2022-08-01T15:02:53;6.33;;;1.82;;
32906;SDS011;19259;51.590;5.320;2022-08-01T15:05:21;5.75;;;1.80;;
32906;SDS011;19259;51.590;5.320;2022-08-01T15:07:49;7.00;;;1.85;;
32906;SDS011;19259;51.590;5.320;2022-08-01T15:10:19;4.97;;;1.70;;
32906;SDS011;19259;51.590;5.320;2022-08-01T15:12:48;5.40;;;1.87;;
32906;SDS011;19259;51.590;5.320;2022-08-01T15:15:16;5.80;;;1.80;;
32906;SDS011;19259;51.590;5.320;2022-08-01T15:17:43;6.90;;;1.82;;
32906;SDS011;19259;51.590;5.320;2022-08-01T15:20:11;5.50;;;1.70;;
32906;SDS011;19259;51.590;5.320;2022-08-01T15:22:38;7.78;;;1.80;;
32906;SDS011;19259;51.590;5.320;2022-08-01T15:25:06;7.83;;;2.00;;
32906;SDS011;19259;51.590;5.320;2022-08-01T15:27:34;9.20;;;1.90;;
32906;SDS011;19259;51.590;5.320;2022-08-01T15:30:03;4.53;;;1.77;;
32906;SDS011;19259;51.590;5.320;2022-08-01T15:32:30;7.70;;;2.10;;
32906;SDS011;19259;51.590;5.320;2022-08-01T15:34:58;11.63;;;2.17;;
32906;SDS011;19259;51.590;5.320;2022-08-01T15:37:26;9.28;;;2.10;;
32906;SDS011;19259;51.590;5.320;2022-08-01T15:39:55;5.80;;;1.77;;
32906;SDS011;19259;51.590;5.320;2022-08-01T15:42:22;9.40;;;2.08;;
32906;SDS011;19259;51.590;5.320;2022-08-01T15:44:50;5.60;;;2.00;;
32906;SDS011;19259;51.590;5.320;2022-08-01T15:47:17;4.75;;;1.50;;
32906;SDS011;19259;51.590;5.320;2022-08-01T15:49:45;6.60;;;1.92;;
32906;SDS011;19259;51.590;5.320;2022-08-01T15:52:12;5.40;;;1.85;;
32906;SDS011;19259;51.590;5.320;2022-08-01T15:54:40;7.40;;;1.65;;
32906;SDS011;19259;51.590;5.320;2022-08-01T15:57:07;5.37;;;1.98;;